Bookmark and Share
Track history (hours):
 

Christopher Dean

Last reported at 2013-Sep-10 23:33 UTC. Time now 2014-Apr-17 12:42 UTC.
Position N 37°16' W 074°21'.
Warning: this ship's position is months out of date.

Length 90 m; draft 4.5 m.

Type: Cargo ship. MMSI: 372708000.

NotesDate/timePositionNaut miles runAvg speedWind from/ knotsBaromVisibWave heightAir tempDewpointWater temp
2013-Sep-10 23:33N 37°16' W 074°21'9 9.1
2013-Sep-10 22:33N 37°25' W 074°19'104 7.8
2013-Sep-10 09:13N 39°08' W 073°57'6 8.7
2013-Sep-10 08:33N 39°14' W 073°56'9 8.7
2013-Sep-10 07:33N 39°22' W 073°54'9 8.7
2013-Sep-10 06:33N 39°31' W 073°52'9 8.7
2013-Sep-10 05:33N 39°39' W 073°50'9 8.7
2013-Sep-10 04:32N 39°48' W 073°50'7 7.0
2013-Sep-10 03:33N 39°55' W 073°50'8 8.3
2013-Sep-10 02:33N 40°03' W 073°50'1010.2
2013-Sep-10 01:33N 40°14' W 073°49'1312.2
2013-Sep-10 00:29N 40°27' W 073°48'1011.3
2013-Sep-09 23:33N 40°32' W 074°00'8 8.1
2013-Sep-09 22:33N 40°40' W 074°01'0 0.0
2013-Sep-09 21:33N 40°40' W 074°01'0 0.0
2013-Sep-09 20:33N 40°40' W 074°01'0 0.0
2013-Sep-09 19:33N 40°40' W 074°01'0 0.0
2013-Sep-09 18:33N 40°40' W 074°01'0 0.0
2013-Sep-09 17:33N 40°40' W 074°01'0 0.0
2013-Sep-09 16:33N 40°40' W 074°01'0 0.0
2013-Sep-09 15:33N 40°40' W 074°01'0 0.0
2013-Sep-09 14:33N 40°40' W 074°01'0 0.0
2013-Sep-09 13:33N 40°40' W 074°01'0 0.0
2013-Sep-09 12:33N 40°40' W 074°01'0 0.0
2013-Sep-09 11:33N 40°40' W 074°01'0 0.0
2013-Sep-09 10:33N 40°40' W 074°01'0 0.0
2013-Sep-09 09:33N 40°40' W 074°01'0 0.0
2013-Sep-09 08:33N 40°40' W 074°01'0 0.0
2013-Sep-09 07:33N 40°40' W 074°01'0 0.0
2013-Sep-09 06:33N 40°40' W 074°01'0 0.0
2013-Sep-09 05:33N 40°40' W 074°01'0 0.0
2013-Sep-09 04:33N 40°40' W 074°01'0 0.0
2013-Sep-09 03:33N 40°40' W 074°01'0 0.0
2013-Sep-09 02:33N 40°40' W 074°01'0 0.0
2013-Sep-09 01:33N 40°40' W 074°01'0 0.0
2013-Sep-09 00:33N 40°40' W 074°01'0 0.0
2013-Sep-08 23:33N 40°40' W 074°01'0 0.0
2013-Sep-08 22:32N 40°40' W 074°01'0 0.0
2013-Sep-08 21:29N 40°40' W 074°01'0 0.0
2013-Sep-08 20:32N 40°40' W 074°01'0 0.0
2013-Sep-08 19:32N 40°40' W 074°01'0 0.0
2013-Sep-08 18:32N 40°40' W 074°01'0 0.0
2013-Sep-08 17:32N 40°40' W 074°01'0 0.0
2013-Sep-08 16:32N 40°40' W 074°01'0 0.0
2013-Sep-08 15:32N 40°40' W 074°01'0 0.0
2013-Sep-08 14:32N 40°40' W 074°01'0 0.0
2013-Sep-08 13:32N 40°40' W 074°01'0 0.0
2013-Sep-08 12:32N 40°40' W 074°01'0 0.0
2013-Sep-08 11:32N 40°40' W 074°01'0 0.0
2013-Sep-08 10:32N 40°40' W 074°01'0 0.0
2013-Sep-08 09:32N 40°40' W 074°01'0 0.0
2013-Sep-08 08:32N 40°40' W 074°01'0 0.0
2013-Sep-08 07:32N 40°40' W 074°01'0 0.0
2013-Sep-08 06:32N 40°40' W 074°01'0 0.0
2013-Sep-08 05:32N 40°40' W 074°01'0 0.0
2013-Sep-08 04:32N 40°40' W 074°01'0 0.0
2013-Sep-08 03:32N 40°40' W 074°01'0 0.0
2013-Sep-08 02:32N 40°40' W 074°01'0 0.0
2013-Sep-08 01:32N 40°40' W 074°01'0 0.0
2013-Sep-08 00:32N 40°40' W 074°01'0 0.0
2013-Sep-07 23:32N 40°40' W 074°01'0 0.0
2013-Sep-07 22:32N 40°40' W 074°01'0 0.0
2013-Sep-07 21:32N 40°40' W 074°01'0 0.0
2013-Sep-07 20:32N 40°40' W 074°01'0 0.0
2013-Sep-07 19:32N 40°40' W 074°01'0 0.0
2013-Sep-07 18:29N 40°40' W 074°01'0 0.0
2013-Sep-07 17:32N 40°40' W 074°01'0 0.0
2013-Sep-07 16:32N 40°40' W 074°01'0 0.0
2013-Sep-07 15:31N 40°40' W 074°01'0 0.0
2013-Sep-07 14:31N 40°40' W 074°01'0 0.0
2013-Sep-07 13:31N 40°40' W 074°01'0 0.0
2013-Sep-07 12:31N 40°40' W 074°01'0 0.0
2013-Sep-07 11:31N 40°40' W 074°01'0 0.0
2013-Sep-07 10:31N 40°40' W 074°01'0 0.0
2013-Sep-07 09:31N 40°40' W 074°01'0 0.0
2013-Sep-07 08:31N 40°40' W 074°01'0 0.0
2013-Sep-07 07:31N 40°40' W 074°01'0 0.0
2013-Sep-07 06:28N 40°40' W 074°01'0 0.0
2013-Sep-07 05:31N 40°40' W 074°01'0 0.0
2013-Sep-07 04:31N 40°40' W 074°01'0 0.0
2013-Sep-07 03:31N 40°40' W 074°01'0 0.0
2013-Sep-07 02:31N 40°40' W 074°01'0 0.0
2013-Sep-07 01:31N 40°40' W 074°01'0 0.0
2013-Sep-07 00:31N 40°40' W 074°01'0 0.0
2013-Sep-06 23:31N 40°40' W 074°01'0 0.0
2013-Sep-06 22:31N 40°40' W 074°01'0 0.0
2013-Sep-06 21:31N 40°40' W 074°01'0 0.0
2013-Sep-06 20:31N 40°40' W 074°01'0 0.0
2013-Sep-06 19:31N 40°40' W 074°01'0 0.0
2013-Sep-06 18:31N 40°40' W 074°01'0 0.0
2013-Sep-06 17:31N 40°40' W 074°01'0 0.0
2013-Sep-06 16:31N 40°40' W 074°01'0 0.1
2013-Sep-06 15:31N 40°40' W 074°01'0 0.1
2013-Sep-06 14:31N 40°40' W 074°01'0 0.0
2013-Sep-06 13:31N 40°40' W 074°01'0 0.0
2013-Sep-06 12:31N 40°40' W 074°01'0 0.0
2013-Sep-06 11:31N 40°40' W 074°01'0 0.0
2013-Sep-06 10:31N 40°40' W 074°01'0 0.0
2013-Sep-06 09:34N 40°40' W 074°01'0 0.0
2013-Sep-06 08:33N 40°40' W 074°01'0 0.0
2013-Sep-06 07:33N 40°40' W 074°01'0 0.0
2013-Sep-06 06:33N 40°40' W 074°01'0 0.0
2013-Sep-06 05:33N 40°40' W 074°01'0 0.0
2013-Sep-06 04:33N 40°40' W 074°01'0 0.0
2013-Sep-06 03:33N 40°40' W 074°01'0 0.0
2013-Sep-06 02:33N 40°40' W 074°01'0 0.0
2013-Sep-06 01:33N 40°40' W 074°01'0 0.0
2013-Sep-06 00:33N 40°40' W 074°01'0 0.0
2013-Sep-05 23:33N 40°40' W 074°01'0 0.0
2013-Sep-05 22:33N 40°40' W 074°01'0 0.0
2013-Sep-05 21:33N 40°40' W 074°01'0 0.0
2013-Sep-05 20:33N 40°40' W 074°01'0 0.0
2013-Sep-05 19:33N 40°40' W 074°01'0 0.0
2013-Sep-05 18:33N 40°40' W 074°01'0 0.0
2013-Sep-05 17:33N 40°40' W 074°01'0 0.0
2013-Sep-05 16:33N 40°40' W 074°01'0 0.0
2013-Sep-05 15:33N 40°40' W 074°01'0 0.0
2013-Sep-05 14:33N 40°40' W 074°01'0 0.0
2013-Sep-05 13:33N 40°40' W 074°01'0 0.0
2013-Sep-05 12:33N 40°40' W 074°01'0 0.0
2013-Sep-05 11:33N 40°40' W 074°01'0 0.0
2013-Sep-05 10:33N 40°40' W 074°01'0 0.0
2013-Sep-05 09:33N 40°40' W 074°01'0 0.0
2013-Sep-05 08:33N 40°40' W 074°01'0 0.0
2013-Sep-05 07:33N 40°40' W 074°01'0 0.0
2013-Sep-05 06:33N 40°40' W 074°01'0 0.0
2013-Sep-05 05:33N 40°40' W 074°01'0 0.0
2013-Sep-05 04:33N 40°40' W 074°01'0 0.0
2013-Sep-05 03:33N 40°40' W 074°01'0 0.0
2013-Sep-05 02:33N 40°40' W 074°01'0 0.0
2013-Sep-05 01:33N 40°40' W 074°01'0 0.0
2013-Sep-05 00:32N 40°40' W 074°01'0 0.0
2013-Sep-04 23:32N 40°40' W 074°01'0 0.0
2013-Sep-04 22:32N 40°40' W 074°01'0 0.0
2013-Sep-04 21:32N 40°40' W 074°01'0 0.0
2013-Sep-04 20:32N 40°40' W 074°01'0 0.0
2013-Sep-04 19:32N 40°40' W 074°01'0 0.0
2013-Sep-04 18:32N 40°40' W 074°01'0 0.0
2013-Sep-04 17:32N 40°40' W 074°01'0 0.0
2013-Sep-04 16:32N 40°40' W 074°01'0 0.0
2013-Sep-04 15:32N 40°40' W 074°01'0 0.0
2013-Sep-04 14:32N 40°40' W 074°01'0 0.0
2013-Sep-04 13:32N 40°40' W 074°01'0 0.0
2013-Sep-04 12:32N 40°40' W 074°01'0 0.2
2013-Sep-04 11:33N 40°40' W 074°01'1 1.3
2013-Sep-04 10:31N 40°39' W 074°03'0 0.0
2013-Sep-04 09:31N 40°39' W 074°03'0 0.0
2013-Sep-04 08:31N 40°39' W 074°03'0 0.0
2013-Sep-04 07:31N 40°39' W 074°03'0 0.0
2013-Sep-04 06:31N 40°39' W 074°03'0 0.0
2013-Sep-04 05:31N 40°39' W 074°03'0 0.0
2013-Sep-04 04:31N 40°39' W 074°03'0 0.0
2013-Sep-04 03:31N 40°39' W 074°03'0 0.0
2013-Sep-04 02:31N 40°39' W 074°03'0 0.0
2013-Sep-04 01:31N 40°39' W 074°03'0 0.0
2013-Sep-04 00:31N 40°39' W 074°03'0 0.0
2013-Sep-03 23:31N 40°39' W 074°03'0 0.0
2013-Sep-03 22:31N 40°39' W 074°03'0 0.0
2013-Sep-03 21:31N 40°39' W 074°03'0 0.0
2013-Sep-03 20:31N 40°39' W 074°03'0 0.0
2013-Sep-03 19:31N 40°39' W 074°03'0 0.0
2013-Sep-03 18:31N 40°39' W 074°03'1 1.5
2013-Sep-03 17:34N 40°38' W 074°03'9 8.7
2013-Sep-03 16:34N 40°30' W 073°57'10 2.0
2013-Sep-03 11:19N 40°30' W 073°43'0 0.0
2013-Sep-03 10:22N 40°30' W 073°43'0 0.0
2013-Sep-03 09:28N 40°30' W 073°43'0 0.0
2013-Sep-03 08:16N 40°30' W 073°43'0 0.0
2013-Sep-03 07:31N 40°30' W 073°43'23 4.7
2013-Sep-03 02:33N 40°07' W 073°46'1312.3
2013-Sep-03 01:31N 39°54' W 073°45'1212.1
2013-Sep-03 00:33N 39°43' W 073°44'1212.1
2013-Sep-02 23:33N 39°30' W 073°46'  

Dump ship's entire track history

sailing weather and tide predictions

Christopher Dean — 3EKF5 — position and weather